createdAt,value
2023-02-17T00:01:11.799Z,91.17
2023-02-17T00:03:38.182Z,91.43
2023-02-17T00:06:09.537Z,90.96
2023-02-17T00:08:36.038Z,91.59
2023-02-17T00:11:02.620Z,91.42
2023-02-17T00:13:29.020Z,91.57
2023-02-17T00:15:55.469Z,91.87
2023-02-17T00:18:22.286Z,91.55
2023-02-17T00:20:48.700Z,91.92
2023-02-17T00:23:15.089Z,92.11
2023-02-17T00:25:41.416Z,92.55
2023-02-17T00:28:07.833Z,92.12
2023-02-17T00:30:34.367Z,92.36
2023-02-17T00:33:01.052Z,92.48
2023-02-17T00:35:27.492Z,92.41
2023-02-17T00:37:53.804Z,92.36
2023-02-17T00:40:20.193Z,91.95
2023-02-17T00:42:46.559Z,92.44
2023-02-17T00:45:12.959Z,92.15
2023-02-17T00:47:39.268Z,91.80
2023-02-17T00:50:06.796Z,91.35
2023-02-17T00:52:33.133Z,91.78
2023-02-17T00:54:59.528Z,91.47
2023-02-17T00:57:26.302Z,90.90
2023-02-17T00:59:52.733Z,90.27
2023-02-17T01:02:19.111Z,90.44
2023-02-17T01:04:45.528Z,90.97
2023-02-17T01:07:11.919Z,90.44
2023-02-17T01:09:38.272Z,90.02
2023-02-17T01:12:04.700Z,89.54
2023-02-17T01:14:31.050Z,89.11
2023-02-17T01:16:57.459Z,89.64
2023-02-17T01:19:23.822Z,89.47
2023-02-17T01:21:50.395Z,89.95
2023-02-17T01:24:16.814Z,90.47
2023-02-17T01:26:43.242Z,90.24
2023-02-17T01:29:10.029Z,89.93
2023-02-17T01:31:36.693Z,90.31
2023-02-17T01:34:04.432Z,89.96
2023-02-17T01:36:31.240Z,90.15
2023-02-17T01:38:57.660Z,90.73
2023-02-17T01:41:28.634Z,90.34
2023-02-17T01:44:18.219Z,90.21
2023-02-17T01:46:46.685Z,89.82
2023-02-17T01:49:25.496Z,89.82
2023-02-17T01:52:20.803Z,90.20
2023-02-17T01:54:57.733Z,89.04
2023-02-17T01:57:26.714Z,89.40
2023-02-17T01:59:53.749Z,89.33
2023-02-17T02:02:20.546Z,89.95
2023-02-17T02:04:49.618Z,89.12
2023-02-17T02:07:22.225Z,89.01
2023-02-17T02:09:54.422Z,89.29
2023-02-17T02:12:33.497Z,89.21
2023-02-17T02:15:02.868Z,89.56
2023-02-17T02:17:40.835Z,89.76
2023-02-17T02:20:46.358Z,90.25
2023-02-17T02:23:31.203Z,89.44
2023-02-17T02:26:03.690Z,90.11
2023-02-17T02:28:58.108Z,89.90
2023-02-17T02:32:02.146Z,89.94
2023-02-17T02:34:38.919Z,89.90
2023-02-17T02:37:10.562Z,89.38
2023-02-17T02:39:42.924Z,89.30
2023-02-17T02:42:13.265Z,89.82
2023-02-17T02:44:39.654Z,89.94
2023-02-17T02:47:44.429Z,89.23
2023-02-17T02:50:14.604Z,89.22
2023-02-17T02:53:13.064Z,88.93
2023-02-17T02:56:07.815Z,88.90
2023-02-17T02:58:52.044Z,88.65
2023-02-17T03:01:52.423Z,88.57
2023-02-17T03:04:40.281Z,88.60
2023-02-17T03:07:22.096Z,87.76
2023-02-17T03:09:50.737Z,87.43
2023-02-17T03:12:17.506Z,87.58
2023-02-17T03:14:43.984Z,88.17
2023-02-17T03:17:10.558Z,88.40
2023-02-17T03:19:37.180Z,89.14
2023-02-17T03:22:24.650Z,88.79
2023-02-17T03:24:51.536Z,89.06
2023-02-17T03:27:18.017Z,88.16
2023-02-17T03:29:44.433Z,88.79
2023-02-17T03:32:10.865Z,88.47
2023-02-17T03:34:37.317Z,87.78
2023-02-17T03:37:03.746Z,88.01
2023-02-17T03:39:30.270Z,88.25
2023-02-17T03:41:56.631Z,87.32
2023-02-17T03:44:23.014Z,88.37
2023-02-17T03:46:49.382Z,87.15
2023-02-17T03:49:15.786Z,88.79
2023-02-17T03:51:42.112Z,89.06
2023-02-17T03:54:09.365Z,88.15
2023-02-17T03:56:35.765Z,88.61
2023-02-17T03:59:02.393Z,88.60
2023-02-17T04:01:28.801Z,88.25
2023-02-17T04:03:55.407Z,88.70
2023-02-17T04:06:21.801Z,88.36
2023-02-17T04:08:48.198Z,89.20
2023-02-17T04:11:14.553Z,88.55
2023-02-17T04:13:40.990Z,89.00
2023-02-17T04:16:09.403Z,88.72
2023-02-17T04:18:36.450Z,88.01
2023-02-17T04:21:03.292Z,88.34
2023-02-17T04:23:29.680Z,88.48
2023-02-17T04:25:56.109Z,88.78
2023-02-17T04:28:22.910Z,88.61
2023-02-17T04:30:50.821Z,89.02
2023-02-17T04:33:17.106Z,88.88
2023-02-17T04:35:43.480Z,88.63
2023-02-17T04:38:10.586Z,88.61
2023-02-17T04:40:37.758Z,89.23
2023-02-17T04:43:04.290Z,88.22
2023-02-17T04:45:30.666Z,88.26
2023-02-17T04:47:57.057Z,88.69
2023-02-17T04:50:23.416Z,88.54
2023-02-17T04:52:49.796Z,88.63
2023-02-17T04:55:16.200Z,88.21
2023-02-17T04:57:42.591Z,88.64
2023-02-17T05:00:09.386Z,89.18
2023-02-17T05:02:35.757Z,89.19
2023-02-17T05:05:02.137Z,88.64
2023-02-17T05:07:28.577Z,89.63
2023-02-17T05:09:54.968Z,89.10
2023-02-17T05:12:21.322Z,89.00
2023-02-17T05:14:47.713Z,89.62
2023-02-17T05:17:14.175Z,89.38
2023-02-17T05:19:40.522Z,90.05
2023-02-17T05:22:06.904Z,90.12
2023-02-17T05:24:33.328Z,89.98
2023-02-17T05:26:59.673Z,90.29
2023-02-17T05:29:26.034Z,90.02
2023-02-17T05:31:52.457Z,90.77
2023-02-17T05:34:18.826Z,90.99
2023-02-17T05:36:45.163Z,91.10
2023-02-17T05:39:11.741Z,90.62
2023-02-17T05:41:38.168Z,90.48
2023-02-17T05:44:04.731Z,91.02
2023-02-17T05:46:31.118Z,91.17
2023-02-17T05:48:57.502Z,91.16
2023-02-17T05:51:23.941Z,91.16
2023-02-17T05:53:50.308Z,91.59
2023-02-17T05:56:16.620Z,91.56
2023-02-17T05:58:43.084Z,91.41
2023-02-17T06:01:10.359Z,91.73
2023-02-17T06:03:37.270Z,91.41
2023-02-17T06:06:04.595Z,92.35
2023-02-17T06:08:31.272Z,91.86
2023-02-17T06:10:57.632Z,91.84
2023-02-17T06:13:23.934Z,92.70
2023-02-17T06:15:50.289Z,92.15
2023-02-17T06:18:16.936Z,92.39
2023-02-17T06:20:43.392Z,92.80
2023-02-17T06:23:09.985Z,91.82
2023-02-17T06:25:36.344Z,92.02
2023-02-17T06:28:02.858Z,91.85
2023-02-17T06:30:29.751Z,92.04
2023-02-17T06:32:56.349Z,91.77
2023-02-17T06:35:22.727Z,91.75
2023-02-17T06:37:49.193Z,91.94
2023-02-17T06:40:15.940Z,91.78
2023-02-17T06:42:42.363Z,92.28
2023-02-17T06:45:09.074Z,91.50
2023-02-17T06:47:35.740Z,91.32
2023-02-17T06:50:02.155Z,91.06
2023-02-17T06:52:28.513Z,91.27
2023-02-17T06:54:54.832Z,91.12
2023-02-17T06:57:21.178Z,90.77
2023-02-17T06:59:47.547Z,91.13
2023-02-17T07:02:14.569Z,91.44
2023-02-17T07:04:41.672Z,90.77
2023-02-17T07:07:08.647Z,90.65
2023-02-17T07:09:34.968Z,91.00
2023-02-17T07:12:01.765Z,90.95
2023-02-17T07:14:28.191Z,90.54
2023-02-17T07:16:55.012Z,91.08
2023-02-17T07:19:21.521Z,90.88
2023-02-17T07:21:47.926Z,91.23
2023-02-17T07:24:14.316Z,91.38
2023-02-17T07:26:40.835Z,91.29
2023-02-17T07:29:07.850Z,91.51
2023-02-17T07:31:35.239Z,91.46
2023-02-17T07:34:02.869Z,91.01
2023-02-17T07:36:29.476Z,90.88
2023-02-17T07:38:56.128Z,90.97
2023-02-17T07:41:30.641Z,90.75
2023-02-17T07:43:57.554Z,91.43
2023-02-17T07:46:24.752Z,91.42
2023-02-17T07:48:51.285Z,91.01
2023-02-17T07:51:20.658Z,90.81
2023-02-17T07:53:47.906Z,90.91
2023-02-17T07:56:16.055Z,90.88
2023-02-17T07:58:43.345Z,90.80
2023-02-17T08:01:15.748Z,90.64
2023-02-17T08:03:42.934Z,90.42
2023-02-17T08:06:14.619Z,90.23
2023-02-17T08:08:59.500Z,89.83
2023-02-17T08:11:46.465Z,89.42
2023-02-17T08:14:13.564Z,89.37
2023-02-17T08:16:40.333Z,89.29
2023-02-17T08:19:07.732Z,88.53
2023-02-17T08:21:34.198Z,88.65
2023-02-17T08:24:00.577Z,88.53
2023-02-17T08:26:27.792Z,87.98
2023-02-17T08:28:54.108Z,88.36
2023-02-17T08:31:23.380Z,88.00
2023-02-17T08:33:50.157Z,87.97
2023-02-17T08:36:16.784Z,87.76
2023-02-17T08:38:48.417Z,88.26
2023-02-17T08:41:19.096Z,87.22
2023-02-17T08:43:45.550Z,86.71
2023-02-17T08:46:12.571Z,86.81
2023-02-17T08:48:39.088Z,86.00
2023-02-17T08:51:05.792Z,85.36
2023-02-17T08:53:33.366Z,85.33
2023-02-17T08:55:59.922Z,85.31
2023-02-17T08:58:26.310Z,85.19
2023-02-17T09:00:52.749Z,85.56
2023-02-17T09:03:19.190Z,86.25
2023-02-17T09:05:45.664Z,86.46
2023-02-17T09:08:12.088Z,87.20
2023-02-17T09:10:38.525Z,87.38
2023-02-17T09:13:05.408Z,87.33
2023-02-17T09:15:31.866Z,88.09
2023-02-17T09:17:58.452Z,88.21
2023-02-17T09:20:25.584Z,88.70
2023-02-17T09:22:52.469Z,88.67
2023-02-17T09:25:19.064Z,88.65
2023-02-17T09:27:45.518Z,88.80
2023-02-17T09:30:12.419Z,88.70
2023-02-17T09:32:41.930Z,88.88
2023-02-17T09:35:11.336Z,88.40
2023-02-17T09:37:37.734Z,88.57
2023-02-17T09:40:04.693Z,88.88
2023-02-17T09:42:34.109Z,88.22
2023-02-17T09:45:06.322Z,88.63
2023-02-17T09:47:36.417Z,88.33
2023-02-17T09:50:06.946Z,88.14
2023-02-17T09:52:36.026Z,88.03
2023-02-17T09:55:09.317Z,87.84
2023-02-17T09:57:43.203Z,87.87
2023-02-17T10:00:15.823Z,87.44
2023-02-17T10:02:56.490Z,87.77
2023-02-17T10:05:25.758Z,87.23
2023-02-17T10:07:56.526Z,87.28
2023-02-17T10:10:26.473Z,87.04
2023-02-17T10:12:56.638Z,86.54
2023-02-17T10:15:25.539Z,86.35
2023-02-17T10:17:55.986Z,85.95
2023-02-17T10:20:35.958Z,85.12
2023-02-17T10:23:07.430Z,85.26
2023-02-17T10:25:59.478Z,84.85
2023-02-17T10:28:39.640Z,84.53
2023-02-17T10:31:12.795Z,84.96
2023-02-17T10:33:52.950Z,83.57
2023-02-17T10:36:33.858Z,83.84
2023-02-17T10:39:03.880Z,83.44
2023-02-17T10:41:35.128Z,83.35
2023-02-17T10:44:03.260Z,83.15
2023-02-17T10:46:30.585Z,82.47
2023-02-17T10:48:57.893Z,83.05
2023-02-17T10:51:31.195Z,82.38
2023-02-17T10:54:01.717Z,82.20
2023-02-17T10:56:44.704Z,82.41
2023-02-17T10:59:22.506Z,80.63
2023-02-17T11:01:49.296Z,81.40
2023-02-17T11:04:15.694Z,80.31
2023-02-17T11:06:44.594Z,80.24
2023-02-17T11:09:29.299Z,80.02
2023-02-17T11:12:12.223Z,80.59
2023-02-17T11:14:48.750Z,79.53
2023-02-17T11:17:30.583Z,79.81
2023-02-17T11:20:04.956Z,78.92
2023-02-17T11:22:37.036Z,79.35
2023-02-17T11:25:18.909Z,78.51
2023-02-17T11:27:52.238Z,78.40
2023-02-17T11:30:18.999Z,78.07
2023-02-17T11:32:45.547Z,77.45
2023-02-17T11:35:54.050Z,77.61
2023-02-17T11:38:23.466Z,77.95
2023-02-17T11:41:03.926Z,77.68
2023-02-17T11:43:30.785Z,77.62
2023-02-17T11:46:03.204Z,77.45
2023-02-17T11:48:32.456Z,77.37
2023-02-17T11:51:23.151Z,77.36
2023-02-17T11:54:06.646Z,77.06
2023-02-17T11:56:35.367Z,76.61
2023-02-17T11:59:26.639Z,76.21
2023-02-17T12:02:05.261Z,75.93
2023-02-17T12:04:33.583Z,76.24
2023-02-17T12:07:22.737Z,75.99
2023-02-17T12:10:16.104Z,76.27
2023-02-17T12:13:05.251Z,76.07
2023-02-17T12:15:40.821Z,76.10
2023-02-17T12:18:31.484Z,75.61
2023-02-17T12:21:12.446Z,75.66
2023-02-17T12:23:49.984Z,76.28
2023-02-17T12:26:24.723Z,77.01
2023-02-17T12:29:23.450Z,76.59
2023-02-17T12:31:58.755Z,76.49
2023-02-17T12:35:00.210Z,77.15
2023-02-17T12:37:34.158Z,76.42
2023-02-17T12:40:10.492Z,76.99
2023-02-17T12:42:40.294Z,76.47
2023-02-17T12:45:31.406Z,76.89
2023-02-17T12:48:02.842Z,76.52
2023-02-17T12:50:35.903Z,77.39
2023-02-17T12:53:06.671Z,77.25
2023-02-17T12:55:48.738Z,77.61
2023-02-17T12:58:21.569Z,77.58
2023-02-17T13:01:06.880Z,78.04
2023-02-17T13:03:35.399Z,78.52
2023-02-17T13:06:29.568Z,77.93
2023-02-17T13:08:58.613Z,78.23
2023-02-17T13:11:30.723Z,78.44
2023-02-17T13:13:57.283Z,77.92
2023-02-17T13:16:23.778Z,78.47
2023-02-17T13:18:51.879Z,78.29
2023-02-17T13:21:32.346Z,77.77
2023-02-17T13:23:58.753Z,77.57
2023-02-17T13:26:30.787Z,77.58
2023-02-17T13:29:23.348Z,77.95
2023-02-17T13:31:54.330Z,77.60
2023-02-17T13:34:31.700Z,78.08
2023-02-17T13:36:58.577Z,78.35
2023-02-17T13:39:27.885Z,78.77
2023-02-17T13:41:59.292Z,78.54
2023-02-17T13:44:40.126Z,78.66
2023-02-17T13:47:14.116Z,78.45
2023-02-17T13:49:40.382Z,79.28
2023-02-17T13:52:17.740Z,79.29
2023-02-17T13:54:57.339Z,79.40
2023-02-17T13:57:32.467Z,79.44
2023-02-17T14:00:29.093Z,79.51
2023-02-17T14:03:15.583Z,78.74
2023-02-17T14:05:46.823Z,79.19
2023-02-17T14:08:34.260Z,78.77
2023-02-17T14:11:16.965Z,78.79
2023-02-17T14:13:45.824Z,78.54
2023-02-17T14:16:33.218Z,78.48
2023-02-17T14:19:17.240Z,78.47
2023-02-17T14:22:04.451Z,78.13
2023-02-17T14:24:36.121Z,78.15
2023-02-17T14:27:13.805Z,78.41
2023-02-17T14:29:50.110Z,78.07
2023-02-17T14:32:34.719Z,78.14
2023-02-17T14:35:13.310Z,78.28
2023-02-17T14:37:41.472Z,78.05
2023-02-17T14:40:28.196Z,78.55
2023-02-17T14:42:54.565Z,78.22
2023-02-17T14:45:20.901Z,78.59
2023-02-17T14:47:47.449Z,78.58
2023-02-17T14:50:16.073Z,78.51
2023-02-17T14:52:45.477Z,78.49
2023-02-17T14:55:35.221Z,78.16
2023-02-17T14:58:01.793Z,78.64
2023-02-17T15:00:28.535Z,78.23
2023-02-17T15:02:54.946Z,78.71
2023-02-17T15:05:21.319Z,78.57
2023-02-17T15:07:47.815Z,78.80
2023-02-17T15:10:28.095Z,78.31
2023-02-17T15:12:55.976Z,77.79
2023-02-17T15:15:22.575Z,77.74
2023-02-17T15:17:48.946Z,77.79
2023-02-17T15:20:16.536Z,78.05
2023-02-17T15:22:44.196Z,77.80
2023-02-17T15:25:19.045Z,77.33
2023-02-17T15:27:47.212Z,77.52
2023-02-17T15:30:16.452Z,77.33
2023-02-17T15:32:43.603Z,77.60
2023-02-17T15:35:16.639Z,77.42
2023-02-17T15:37:43.083Z,77.25
2023-02-17T15:40:14.434Z,77.18
2023-02-17T15:42:40.888Z,77.44
2023-02-17T15:45:09.637Z,77.50
2023-02-17T15:47:36.037Z,77.68
2023-02-17T15:50:02.368Z,77.74
2023-02-17T15:52:28.692Z,78.09
2023-02-17T15:54:55.080Z,78.14
2023-02-17T15:57:25.357Z,77.75
2023-02-17T15:59:54.848Z,77.96
2023-02-17T16:02:23.201Z,77.85
2023-02-17T16:04:49.613Z,78.00
2023-02-17T16:07:16.011Z,77.93
2023-02-17T16:09:42.462Z,77.74
2023-02-17T16:12:16.449Z,78.27
2023-02-17T16:14:43.961Z,78.17
2023-02-17T16:17:16.047Z,78.27
2023-02-17T16:19:42.600Z,78.20
2023-02-17T16:22:08.981Z,78.85
2023-02-17T16:24:35.301Z,78.65
2023-02-17T16:27:01.771Z,78.54
2023-02-17T16:29:28.214Z,78.98
2023-02-17T16:31:55.780Z,78.81
2023-02-17T16:34:23.303Z,79.11
2023-02-17T16:36:51.059Z,79.24
2023-02-17T16:39:20.001Z,79.43
2023-02-17T16:41:46.981Z,78.95
2023-02-17T16:44:17.275Z,79.28
2023-02-17T16:46:51.945Z,79.39
2023-02-17T16:49:33.081Z,79.28
2023-02-17T16:52:05.733Z,79.43
2023-02-17T16:54:34.387Z,79.92
2023-02-17T16:57:01.771Z,79.71
2023-02-17T16:59:28.212Z,80.02
2023-02-17T17:01:54.604Z,79.77
2023-02-17T17:04:21.691Z,80.34
2023-02-17T17:06:50.488Z,80.24
2023-02-17T17:09:23.697Z,80.25
2023-02-17T17:11:50.211Z,80.10
2023-02-17T17:14:16.935Z,79.97
2023-02-17T17:16:49.093Z,80.17
2023-02-17T17:19:15.500Z,80.12
2023-02-17T17:21:41.872Z,80.27
2023-02-17T17:24:08.256Z,79.54
2023-02-17T17:26:39.811Z,79.86
2023-02-17T17:29:07.453Z,80.20
2023-02-17T17:31:34.460Z,79.61
2023-02-17T17:34:00.844Z,79.90
2023-02-17T17:36:39.361Z,79.83
2023-02-17T17:39:07.835Z,79.89
2023-02-17T17:41:34.231Z,79.61
2023-02-17T17:44:00.666Z,79.63
2023-02-17T17:46:31.923Z,79.47
2023-02-17T17:48:59.656Z,79.75
2023-02-17T17:51:28.157Z,79.83
2023-02-17T17:53:54.683Z,79.83
2023-02-17T17:56:28.499Z,79.50
2023-02-17T17:58:55.713Z,79.94
2023-02-17T18:01:22.175Z,80.10
2023-02-17T18:03:49.502Z,79.94
2023-02-17T18:06:19.298Z,79.75
2023-02-17T18:08:46.786Z,80.27
2023-02-17T18:11:15.881Z,80.10
2023-02-17T18:13:43.443Z,79.92
2023-02-17T18:16:10.126Z,80.02
2023-02-17T18:18:36.905Z,80.37
2023-02-17T18:21:03.425Z,79.98
2023-02-17T18:23:29.902Z,80.31
2023-02-17T18:25:56.254Z,80.20
2023-02-17T18:28:22.672Z,80.61
2023-02-17T18:30:49.101Z,80.64
2023-02-17T18:33:15.646Z,81.78
2023-02-17T18:35:43.994Z,81.79
2023-02-17T18:38:10.355Z,81.47
2023-02-17T18:40:40.543Z,81.76
2023-02-17T18:43:07.725Z,81.47
2023-02-17T18:45:34.215Z,81.39
2023-02-17T18:48:00.630Z,81.72
2023-02-17T18:50:27.392Z,81.38
2023-02-17T18:52:53.727Z,80.56
2023-02-17T18:55:20.131Z,80.02
2023-02-17T18:57:46.516Z,79.79
2023-02-17T19:00:15.400Z,79.29
2023-02-17T19:02:41.950Z,79.20
2023-02-17T19:05:10.021Z,78.92
2023-02-17T19:07:36.430Z,77.56
2023-02-17T19:10:03.958Z,77.89
2023-02-17T19:12:30.348Z,77.67
2023-02-17T19:14:56.732Z,78.21
2023-02-17T19:17:24.543Z,78.00
2023-02-17T19:19:51.244Z,77.89
2023-02-17T19:22:18.236Z,78.25
2023-02-17T19:24:45.097Z,77.88
2023-02-17T19:27:11.895Z,78.12
2023-02-17T19:29:38.320Z,77.99
2023-02-17T19:32:04.860Z,78.06
2023-02-17T19:34:31.996Z,78.72
2023-02-17T19:36:58.412Z,78.76
2023-02-17T19:39:24.801Z,78.96
2023-02-17T19:41:51.153Z,78.81
2023-02-17T19:44:17.598Z,79.24
2023-02-17T19:46:43.951Z,80.05
2023-02-17T19:49:10.343Z,80.43
2023-02-17T19:51:36.725Z,81.27
2023-02-17T19:54:03.120Z,82.11
2023-02-17T19:56:31.912Z,82.97
2023-02-17T19:58:58.635Z,83.84
2023-02-17T20:01:27.281Z,85.04
2023-02-17T20:03:55.020Z,85.69
2023-02-17T20:06:34.650Z,86.18
2023-02-17T20:09:04.584Z,86.86
2023-02-17T20:11:31.943Z,86.05
2023-02-17T20:13:59.427Z,86.93
2023-02-17T20:16:26.814Z,86.93
2023-02-17T20:18:55.085Z,87.46
2023-02-17T20:21:24.184Z,87.83
2023-02-17T20:23:51.385Z,88.02
2023-02-17T20:26:25.307Z,88.02
2023-02-17T20:28:51.793Z,88.79
2023-02-17T20:31:18.537Z,88.92
2023-02-17T20:33:45.358Z,89.00
2023-02-17T20:36:12.219Z,89.00
2023-02-17T20:38:40.500Z,89.58
2023-02-17T20:41:08.438Z,89.11
2023-02-17T20:43:37.460Z,89.16
2023-02-17T20:46:04.050Z,88.71
2023-02-17T20:48:30.368Z,88.23
2023-02-17T20:50:58.225Z,87.99
2023-02-17T20:53:25.741Z,87.86
2023-02-17T20:55:52.360Z,87.51
2023-02-17T20:58:19.017Z,87.30
2023-02-17T21:00:46.100Z,87.65
2023-02-17T21:03:12.543Z,87.42
2023-02-17T21:05:39.039Z,87.57
2023-02-17T21:08:05.398Z,86.53
2023-02-17T21:10:32.888Z,85.93
2023-02-17T21:12:59.266Z,85.19
2023-02-17T21:15:25.711Z,85.39
2023-02-17T21:17:52.088Z,85.53
2023-02-17T21:20:20.466Z,85.07
2023-02-17T21:22:46.896Z,84.86
2023-02-17T21:25:13.485Z,84.67
2023-02-17T21:27:39.871Z,84.25
2023-02-17T21:30:07.561Z,84.32
2023-02-17T21:32:33.803Z,83.95
2023-02-17T21:35:00.138Z,83.73
2023-02-17T21:37:26.478Z,83.04
2023-02-17T21:39:52.858Z,83.86
2023-02-17T21:42:39.162Z,83.90
2023-02-17T21:45:05.884Z,84.05
2023-02-17T21:47:32.534Z,83.97
2023-02-17T21:49:59.099Z,84.11
2023-02-17T21:52:25.437Z,84.52
2023-02-17T21:54:51.827Z,84.91
2023-02-17T21:57:18.249Z,85.20
2023-02-17T21:59:44.611Z,84.93
2023-02-17T22:02:11.830Z,85.22
2023-02-17T22:04:38.223Z,85.22
2023-02-17T22:07:04.565Z,85.53
2023-02-17T22:09:30.919Z,85.45
2023-02-17T22:11:57.276Z,86.24
2023-02-17T22:14:23.609Z,86.46
2023-02-17T22:16:49.998Z,86.15
2023-02-17T22:19:23.625Z,86.60
2023-02-17T22:21:51.281Z,87.20
2023-02-17T22:24:17.620Z,86.66
2023-02-17T22:26:43.922Z,87.16
2023-02-17T22:29:10.269Z,86.74
2023-02-17T22:31:36.693Z,86.74
2023-02-17T22:34:06.308Z,86.62
2023-02-17T22:36:34.621Z,86.92
2023-02-17T22:39:01.699Z,86.35
2023-02-17T22:41:28.304Z,87.04
2023-02-17T22:43:54.869Z,86.89
2023-02-17T22:46:23.223Z,87.30
2023-02-17T22:48:51.846Z,86.89
2023-02-17T22:51:20.620Z,86.66
2023-02-17T22:53:47.254Z,86.45
2023-02-17T22:56:13.942Z,86.46
2023-02-17T22:58:40.682Z,86.71
2023-02-17T23:01:15.718Z,86.62
2023-02-17T23:03:42.596Z,86.59
2023-02-17T23:06:12.541Z,86.98
2023-02-17T23:08:39.196Z,87.36
2023-02-17T23:11:10.518Z,87.28
2023-02-17T23:13:37.784Z,87.25
2023-02-17T23:16:05.154Z,86.82
2023-02-17T23:18:33.152Z,86.37
2023-02-17T23:21:00.108Z,86.15
2023-02-17T23:23:26.782Z,86.29
2023-02-17T23:25:54.974Z,86.14
2023-02-17T23:28:23.492Z,86.48
2023-02-17T23:30:50.457Z,86.56
2023-02-17T23:33:18.408Z,86.76
2023-02-17T23:35:45.859Z,87.25
2023-02-17T23:38:13.771Z,87.38
2023-02-17T23:40:40.384Z,87.28
2023-02-17T23:43:06.785Z,87.11
2023-02-17T23:45:33.970Z,87.35
2023-02-17T23:48:00.330Z,87.50
2023-02-17T23:50:26.879Z,87.52
2023-02-17T23:52:53.236Z,87.50
2023-02-17T23:55:19.631Z,86.95
2023-02-17T23:57:46.007Z,87.17
